^^
Station Historical Data
Daily Summary for December 7, 2017 Units:  Both    English   Metric
« Previous Day
Next Day »
Daily Weekly Monthly Yearly Custom
  High: Low: Average:
Temperature: 100.8 °F /  38.2 °C 73.9 °F /  23.3 °C 82.9 °F /  28.3 °C
Dew Point: 51.6 °F /  10.9 °C 40.8 °F /  4.9 °C 46.8 °F /  8.2 °C
Humidity: 38% 14% 30%
Wind Speed: 16.1mph /  25.9km/h - 3.1mph /  5km/h
Wind Gust: 21.0mph /  33.8km/h - -
Wind- - ESE
Pressure: 29.78 in /  1008.4 hPa 29.67 in /  1004.6 hPa -
Precipitation: 0.00 in /  0 mm    
Historical Graphs
 
 
Tabular Data for December 7, 2017
Time Temperature Dew Point Pressure Wind Wind Speed Wind Gust Humidity Rainfall Rate (Hourly) solar Conditions
00:03 82.8 °F /  28.2 °C 49.1 °F /  9.5 °C 29.73in /  1006.7hPa SW 4.9mph /  7.9km/h 6.0mph /  9.7km/h 31% 0.00in /  0mm 0.0 W/m2
00:25 82.0 °F /  27.8 °C 48.4 °F /  9.1 °C 29.73in /  1006.7hPa SW 2.9mph /  4.7km/h 5.0mph /  8km/h 31% 0.00in /  0mm 0.0 W/m2
00:32 81.7 °F /  27.6 °C 48.9 °F /  9.4 °C 29.73in /  1006.7hPa SW 4.0mph /  6.4km/h 5.0mph /  8km/h 32% 0.00in /  0mm 0.0 W/m2
00:41 81.1 °F /  27.3 °C 48.6 °F /  9.2 °C 29.73in /  1006.7hPa Calm     32% 0.00in /  0mm 0.0 W/m2
00:47 81.0 °F /  27.2 °C 48.4 °F /  9.1 °C 29.73in /  1006.7hPa Calm     32% 0.00in /  0mm 0.0 W/m2
00:52 80.8 °F /  27.1 °C 48.2 °F /  9 °C 29.73in /  1006.7hPa Calm     32% 0.00in /  0mm 0.0 W/m2
00:57 80.4 °F /  26.9 °C 47.8 °F /  8.8 °C 29.72in /  1006.3hPa Calm     32% 0.00in /  0mm 0.0 W/m2
01:02 80.1 °F /  26.7 °C 48.4 °F /  9.1 °C 29.72in /  1006.3hPa Calm     33% 0.00in /  0mm 0.0 W/m2
01:07 79.9 °F /  26.6 °C 48.2 °F /  9 °C 29.72in /  1006.3hPa Calm     33% 0.00in /  0mm 0.0 W/m2
01:13 79.9 °F /  26.6 °C 48.2 °F /  9 °C 29.71in /  1006hPa Calm     33% 0.00in /  0mm 0.0 W/m2
01:18 79.5 °F /  26.4 °C 47.8 °F /  8.8 °C 29.71in /  1006hPa Calm     33% 0.00in /  0mm 0.0 W/m2
01:23 79.5 °F /  26.4 °C 47.8 °F /  8.8 °C 29.71in /  1006hPa Calm     33% 0.00in /  0mm 0.0 W/m2
01:28 79.3 °F /  26.3 °C 47.7 °F /  8.7 °C 29.71in /  1006hPa Calm     33% 0.00in /  0mm 0.0 W/m2
01:33 78.8 °F /  26 °C 48.0 °F /  8.9 °C 29.71in /  1006hPa Calm     34% 0.00in /  0mm 0.0 W/m2
01:39 78.4 °F /  25.8 °C 47.7 °F /  8.7 °C 29.72in /  1006.3hPa Calm     34% 0.00in /  0mm 0.0 W/m2
01:45 78.4 °F /  25.8 °C 47.7 °F /  8.7 °C 29.71in /  1006hPa Calm     34% 0.00in /  0mm 0.0 W/m2
01:50 78.4 °F /  25.8 °C 47.7 °F /  8.7 °C 29.71in /  1006hPa Calm     34% 0.00in /  0mm 0.0 W/m2
01:55 78.4 °F /  25.8 °C 47.7 °F /  8.7 °C 29.71in /  1006hPa Calm     34% 0.00in /  0mm 0.0 W/m2
02:00 78.4 °F /  25.8 °C 47.7 °F /  8.7 °C 29.71in /  1006hPa Calm     34% 0.00in /  0mm 0.0 W/m2
02:05 78.4 °F /  25.8 °C 47.7 °F /  8.7 °C 29.71in /  1006hPa Calm     34% 0.00in /  0mm 0.0 W/m2
02:10 78.3 °F /  25.7 °C 47.7 °F /  8.7 °C 29.70in /  1005.6hPa Calm     34% 0.00in /  0mm 0.0 W/m2
02:16 78.1 °F /  25.6 °C 47.5 °F /  8.6 °C 29.70in /  1005.6hPa Calm     34% 0.00in /  0mm 0.0 W/m2
02:21 77.9 °F /  25.5 °C 48.0 °F /  8.9 °C 29.70in /  1005.6hPa Calm     35% 0.00in /  0mm 0.0 W/m2
02:26 77.7 °F /  25.4 °C 47.8 °F /  8.8 °C 29.70in /  1005.6hPa Calm     35% 0.00in /  0mm 0.0 W/m2
02:31 77.5 °F /  25.3 °C 47.7 °F /  8.7 °C 29.70in /  1005.6hPa Calm     35% 0.00in /  0mm 0.0 W/m2
02:37 77.4 °F /  25.2 °C 47.5 °F /  8.6 °C 29.70in /  1005.6hPa Calm     35% 0.00in /  0mm 0.0 W/m2
02:48 77.2 °F /  25.1 °C 48.2 °F /  9 °C 29.70in /  1005.6hPa Calm     36% 0.00in /  0mm 0.0 W/m2
02:53 77.0 °F /  25 °C 48.0 °F /  8.9 °C 29.70in /  1005.6hPa Calm     36% 0.00in /  0mm 0.0 W/m2
02:59 77.0 °F /  25 °C 48.0 °F /  8.9 °C 29.70in /  1005.6hPa Calm     36% 0.00in /  0mm 0.0 W/m2
03:04 76.8 °F /  24.9 °C 47.8 °F /  8.8 °C 29.70in /  1005.6hPa Calm     36% 0.00in /  0mm 0.0 W/m2
03:09 76.6 °F /  24.8 °C 46.9 °F /  8.3 °C 29.70in /  1005.6hPa Calm     35% 0.00in /  0mm 0.0 W/m2
03:14 76.3 °F /  24.6 °C 47.3 °F /  8.5 °C 29.70in /  1005.6hPa Calm     36% 0.00in /  0mm 0.0 W/m2
03:19 76.3 °F /  24.6 °C 47.3 °F /  8.5 °C 29.70in /  1005.6hPa Calm     36% 0.00in /  0mm 0.0 W/m2
03:24 76.1 °F /  24.5 °C 47.1 °F /  8.4 °C 29.71in /  1006hPa Calm     36% 0.00in /  0mm 0.0 W/m2
03:30 75.9 °F /  24.4 °C 47.8 °F /  8.8 °C 29.71in /  1006hPa Calm     37% 0.00in /  0mm 0.0 W/m2
03:35 75.9 °F /  24.4 °C 47.1 °F /  8.4 °C 29.70in /  1005.6hPa Calm     36% 0.00in /  0mm 0.0 W/m2
03:41 75.6 °F /  24.2 °C 46.0 °F /  7.8 °C 29.71in /  1006hPa Calm     35% 0.00in /  0mm 0.0 W/m2
03:46 75.4 °F /  24.1 °C 46.6 °F /  8.1 °C 29.71in /  1006hPa Calm     36% 0.00in /  0mm 0.0 W/m2
03:51 75.0 °F /  23.9 °C 46.2 °F /  7.9 °C 29.71in /  1006hPa Calm     36% 0.00in /  0mm 0.0 W/m2
03:56 74.8 °F /  23.8 °C 46.0 °F /  7.8 °C 29.71in /  1006hPa Calm     36% 0.00in /  0mm 0.0 W/m2
04:01 74.7 °F /  23.7 °C 46.6 °F /  8.1 °C 29.71in /  1006hPa Calm     37% 0.00in /  0mm 0.0 W/m2
04:06 74.7 °F /  23.7 °C 46.6 °F /  8.1 °C 29.71in /  1006hPa Calm     37% 0.00in /  0mm 0.0 W/m2
04:12 74.8 °F /  23.8 °C 46.8 °F /  8.2 °C 29.71in /  1006hPa Calm     37% 0.00in /  0mm 0.0 W/m2
04:17 74.8 °F /  23.8 °C 46.0 °F /  7.8 °C 29.71in /  1006hPa Calm     36% 0.00in /  0mm 0.0 W/m2
04:22 74.5 °F /  23.6 °C 45.9 °F /  7.7 °C 29.72in /  1006.3hPa Calm     36% 0.00in /  0mm 0.0 W/m2
04:33 73.9 °F /  23.3 °C 46.8 °F /  8.2 °C 29.72in /  1006.3hPa Calm     38% 0.00in /  0mm 0.0 W/m2
04:38 74.1 °F /  23.4 °C 46.9 °F /  8.3 °C 29.72in /  1006.3hPa Calm     38% 0.00in /  0mm 0.0 W/m2
04:44 74.3 °F /  23.5 °C 46.4 °F /  8 °C 29.72in /  1006.3hPa Calm     37% 0.00in /  0mm 0.0 W/m2
04:49 74.5 °F /  23.6 °C 46.6 °F /  8.1 °C 29.72in /  1006.3hPa Calm     37% 0.00in /  0mm 0.0 W/m2
04:54 74.5 °F /  23.6 °C 45.9 °F /  7.7 °C 29.72in /  1006.3hPa Calm     36% 0.00in /  0mm 0.0 W/m2
04:59 74.5 °F /  23.6 °C 45.0 °F /  7.2 °C 29.72in /  1006.3hPa Calm     35% 0.00in /  0mm 0.0 W/m2
05:04 74.7 °F /  23.7 °C 45.1 °F /  7.3 °C 29.72in /  1006.3hPa Calm     35% 0.00in /  0mm 0.0 W/m2
05:09 74.8 °F /  23.8 °C 45.3 °F /  7.4 °C 29.72in /  1006.3hPa Calm     35% 0.00in /  0mm 0.0 W/m2
05:19 75.4 °F /  24.1 °C 45.9 °F /  7.7 °C 29.73in /  1006.7hPa Calm     35% 0.00in /  0mm 0.0 W/m2
05:35 75.9 °F /  24.4 °C 44.8 °F /  7.1 °C 29.74in /  1007hPa Calm     33% 0.00in /  0mm 0.0 W/m2
05:41 76.6 °F /  24.8 °C 45.3 °F /  7.4 °C 29.74in /  1007hPa Calm     33% 0.00in /  0mm 0.0 W/m2
05:46 77.7 °F /  25.4 °C 45.5 °F /  7.5 °C 29.74in /  1007hPa Calm     32% 0.00in /  0mm 0.0 W/m2
05:51 78.6 °F /  25.9 °C 45.5 °F /  7.5 °C 29.74in /  1007hPa Calm     31% 0.00in /  0mm 5.0 W/m2
05:56 79.0 °F /  26.1 °C 45.7 °F /  7.6 °C 29.74in /  1007hPa Calm     31% 0.00in /  0mm 7.0 W/m2
06:01 79.2 °F /  26.2 °C 45.9 °F /  7.7 °C 29.74in /  1007hPa Calm     31% 0.00in /  0mm 9.0 W/m2
06:07 79.3 °F /  26.3 °C 46.0 °F /  7.8 °C 29.75in /  1007.3hPa Calm     31% 0.00in /  0mm 12.0 W/m2
06:48 80.1 °F /  26.7 °C 46.8 °F /  8.2 °C 29.76in /  1007.7hPa Calm     31% 0.00in /  0mm 125.0 W/m2
06:53 80.4 °F /  26.9 °C 46.9 °F /  8.3 °C 29.76in /  1007.7hPa Calm     31% 0.00in /  0mm 142.0 W/m2
07:03 82.4 °F /  28 °C 50.4 °F /  10.2 °C 29.76in /  1007.7hPa NE 12.1mph /  19.5km/h 12.1mph /  19.5km/h 33% 0.00in /  0mm 185.0 W/m2
07:08 83.7 °F /  28.7 °C 51.4 °F /  10.8 °C 29.76in /  1007.7hPa NE 8.9mph /  14.3km/h 13.0mph /  20.9km/h 33% 0.00in /  0mm 204.0 W/m2
07:13 84.4 °F /  29.1 °C 51.3 °F /  10.7 °C 29.76in /  1007.7hPa NNE 14.1mph /  22.7km/h 18.0mph /  29km/h 32% 0.00in /  0mm 220.0 W/m2
07:18 84.7 °F /  29.3 °C 51.6 °F /  10.9 °C 29.76in /  1007.7hPa NNE 12.1mph /  19.5km/h 15.0mph /  24.1km/h 32% 0.00in /  0mm 237.0 W/m2
07:24 85.1 °F /  29.5 °C 51.1 °F /  10.6 °C 29.76in /  1007.7hPa NNE 8.1mph /  13km/h 12.0mph /  19.3km/h 31% 0.00in /  0mm 253.0 W/m2
07:35 85.8 °F /  29.9 °C 50.7 °F /  10.4 °C 29.77in /  1008hPa NNE 4.9mph /  7.9km/h 12.0mph /  19.3km/h 30% 0.00in /  0mm 281.0 W/m2
07:42 86.0 °F /  30 °C 50.0 °F /  10 °C 29.77in /  1008hPa NNE 11.0mph /  17.7km/h 16.0mph /  25.7km/h 29% 0.00in /  0mm 302.0 W/m2
08:03 87.4 °F /  30.8 °C 49.3 °F /  9.6 °C 29.77in /  1008hPa NNE 10.1mph /  16.3km/h 14.0mph /  22.5km/h 27% 0.00in /  0mm 385.0 W/m2
08:07 87.4 °F /  30.8 °C 49.3 °F /  9.6 °C 29.77in /  1008hPa NNE 10.1mph /  16.3km/h 14.0mph /  22.5km/h 27% 0.00in /  0mm 385.0 W/m2
08:18 87.8 °F /  31 °C 48.6 °F /  9.2 °C 29.77in /  1008hPa NE 8.9mph /  14.3km/h 18.0mph /  29km/h 26% 0.00in /  0mm 418.0 W/m2
08:32 87.6 °F /  30.9 °C 49.5 °F /  9.7 °C 29.77in /  1008hPa NE 12.1mph /  19.5km/h 15.0mph /  24.1km/h 27% 0.00in /  0mm 468.0 W/m2
08:43 88.2 °F /  31.2 °C 50.0 °F /  10 °C 29.78in /  1008.4hPa NNE 12.1mph /  19.5km/h 14.0mph /  22.5km/h 27% 0.00in /  0mm 499.0 W/m2
08:51 88.5 °F /  31.4 °C 50.4 °F /  10.2 °C 29.77in /  1008hPa NNE 13.0mph /  20.9km/h 18.0mph /  29km/h 27% 0.00in /  0mm 531.0 W/m2
09:05 89.6 °F /  32 °C 50.2 °F /  10.1 °C 29.77in /  1008hPa NE 15.0mph /  24.1km/h 15.0mph /  24.1km/h 26% 0.00in /  0mm 575.0 W/m2
09:12 89.8 °F /  32.1 °C 50.4 °F /  10.2 °C 29.77in /  1008hPa NNE 16.1mph /  25.9km/h 20.0mph /  32.2km/h 26% 0.00in /  0mm 592.0 W/m2
09:33 91.0 °F /  32.8 °C 49.3 °F /  9.6 °C 29.76in /  1007.7hPa NNE 6.9mph /  11.1km/h 18.0mph /  29km/h 24% 0.00in /  0mm 670.0 W/m2
09:54 91.2 °F /  32.9 °C 48.2 °F /  9 °C 29.76in /  1007.7hPa NNE 15.0mph /  24.1km/h 20.0mph /  32.2km/h 23% 0.00in /  0mm 707.0 W/m2
10:09 92.3 °F /  33.5 °C 48.0 °F /  8.9 °C 29.76in /  1007.7hPa NE 10.1mph /  16.3km/h 15.0mph /  24.1km/h 22% 0.00in /  0mm 745.0 W/m2
10:24 92.7 °F /  33.7 °C 46.9 °F /  8.3 °C 29.76in /  1007.7hPa North 6.9mph /  11.1km/h 20.0mph /  32.2km/h 21% 0.00in /  0mm 780.0 W/m2
10:40 93.0 °F /  33.9 °C 46.0 °F /  7.8 °C 29.75in /  1007.3hPa NNE 12.1mph /  19.5km/h 18.0mph /  29km/h 20% 0.00in /  0mm 817.0 W/m2
11:10 94.6 °F /  34.8 °C 44.6 °F /  7 °C 29.75in /  1007.3hPa NNE 4.9mph /  7.9km/h 18.0mph /  29km/h 18% 0.00in /  0mm 875.0 W/m2
11:25 95.2 °F /  35.1 °C 41.9 °F /  5.5 °C 29.75in /  1007.3hPa NNW 4.9mph /  7.9km/h 14.0mph /  22.5km/h 16% 0.00in /  0mm 902.0 W/m2
11:41 96.3 °F /  35.7 °C 44.4 °F /  6.9 °C 29.74in /  1007hPa North 4.9mph /  7.9km/h 16.0mph /  25.7km/h 17% 0.00in /  0mm 918.0 W/m2
11:56 96.8 °F /  36 °C 41.5 °F /  5.3 °C 29.74in /  1007hPa NW 12.1mph /  19.5km/h 15.0mph /  24.1km/h 15% 0.00in /  0mm 935.0 W/m2
12:11 97.0 °F /  36.1 °C 41.7 °F /  5.4 °C 29.73in /  1006.7hPa Calm   17.0mph /  27.4km/h 15% 0.00in /  0mm 946.0 W/m2
12:24 97.5 °F /  36.4 °C 42.1 °F /  5.6 °C 29.73in /  1006.7hPa North 8.9mph /  14.3km/h 21.0mph /  33.8km/h 15% 0.00in /  0mm 954.0 W/m2
12:40 98.1 °F /  36.7 °C 40.8 °F /  4.9 °C 29.72in /  1006.3hPa North 4.9mph /  7.9km/h 5.0mph /  8km/h 14% 0.00in /  0mm 960.0 W/m2
12:54 98.8 °F /  37.1 °C 41.4 °F /  5.2 °C 29.72in /  1006.3hPa North 4.9mph /  7.9km/h 15.0mph /  24.1km/h 14% 0.00in /  0mm 976.0 W/m2
13:16 98.1 °F /  36.7 °C 40.8 °F /  4.9 °C 29.71in /  1006hPa ENE 6.0mph /  9.7km/h 11.0mph /  17.7km/h 14% 0.00in /  0mm 132.0 W/m2
13:31 99.5 °F /  37.5 °C 41.9 °F /  5.5 °C 29.70in /  1005.6hPa ENE 2.9mph /  4.7km/h 5.0mph /  8km/h 14% 0.00in /  0mm 983.0 W/m2
13:43 99.9 °F /  37.7 °C 42.1 °F /  5.6 °C 29.70in /  1005.6hPa NNW 8.1mph /  13km/h 15.0mph /  24.1km/h 14% 0.00in /  0mm 981.0 W/m2
13:55 99.1 °F /  37.3 °C 43.3 °F /  6.3 °C 29.70in /  1005.6hPa North 0.9mph /  1.4km/h 9.0mph /  14.5km/h 15% 0.00in /  0mm 1042.0 W/m2
14:06 98.8 °F /  37.1 °C 43.2 °F /  6.2 °C 29.69in /  1005.3hPa NNW 4.9mph /  7.9km/h 11.0mph /  17.7km/h 15% 0.00in /  0mm 990.0 W/m2
14:20 100.8 °F /  38.2 °C 42.8 °F /  6 °C 29.68in /  1005hPa North 4.0mph /  6.4km/h 14.0mph /  22.5km/h 14% 0.00in /  0mm 949.0 W/m2
14:29 100.6 °F /  38.1 °C 42.8 °F /  6 °C 29.68in /  1005hPa East 4.0mph /  6.4km/h 5.0mph /  8km/h 14% 0.00in /  0mm 970.0 W/m2
14:37 100.0 °F /  37.8 °C 42.3 °F /  5.7 °C 29.67in /  1004.6hPa NE 0.9mph /  1.4km/h 4.0mph /  6.4km/h 14% 0.00in /  0mm 181.0 W/m2
Canyon Roadhouse, Fishriver Canyon, Namibia
Compliments of Weather Underground - 2 mb